Terminal Aerodrome Forecast
Issued by NWS Mt. Holly, NJ

Current Version | Previous Version | Text Only | Print | Product List | Glossary On
Versions: 1 2 3 4 5 6 7 8 9 10 11 12 13 14 15 16 17 18 19
000
FTUS41 KPHI 231427 AAA
TAFRDG
TAF AMD
KRDG 231427Z 2314/2412 23008KT P6SM BKN015
     FM231600 24012G18KT P6SM SCT025 OVC050
      TEMPO 2320/2324 3SM TSRA BKN025CB
     FM240000 22010KT P6SM OVC040
     FM240800 24007KT 4SM SHRA OVC015=

USA.gov is the U.S. government's official web portal to all federal, state and local government web resources and services.